Time;durP1;ratioP1;P1;durP2;ratioP2;P2;SDS_P1;SDS_P2;PMS_P1;PMS_P2;Temp;Humidity;BMP_temperature;BMP_pressure;BME280_temperature;BME280_humidity;BME280_pressure;Samples;Min_cycle;Max_cycle;Signal;HPM_P1;HPM_P2
2023/03/15 00:02:22;;;;;;;5.78;4.30;;;9.20;99.90;;;;;;5050893;28;20844;-73
2023/03/15 00:04:50;;;;;;;8.77;4.30;;;9.10;99.90;;;;;;5044299;28;20408;-72
2023/03/15 00:07:16;;;;;;;5.97;4.00;;;9.10;99.90;;;;;;5056967;28;20419;-73
2023/03/15 00:09:42;;;;;;;5.82;3.95;;;9.00;99.90;;;;;;5056240;28;20769;-73
2023/03/15 00:12:08;;;;;;;5.13;4.00;;;9.00;99.90;;;;;;5047496;28;20486;-73
2023/03/15 00:14:36;;;;;;;5.30;4.20;;;8.90;99.90;;;;;;5068036;28;20945;-73
2023/03/15 00:17:02;;;;;;;5.70;3.80;;;8.90;99.90;;;;;;5035615;28;20496;-73
2023/03/15 00:19:29;;;;;;;5.35;4.28;;;8.80;99.90;;;;;;5065627;28;20409;-73
2023/03/15 00:21:55;;;;;;;5.07;3.93;;;8.90;99.90;;;;;;5049813;28;20418;-73
2023/03/15 00:24:21;;;;;;;7.05;4.28;;;8.90;99.90;;;;;;5050471;28;20554;-73
2023/03/15 00:26:47;;;;;;;5.32;4.28;;;9.00;99.90;;;;;;5041233;28;20910;-73
2023/03/15 00:29:13;;;;;;;4.65;3.95;;;9.00;99.90;;;;;;5048426;28;20489;-73
2023/03/15 00:31:40;;;;;;;6.60;4.25;;;9.00;99.90;;;;;;5050224;28;20441;-73
2023/03/15 00:34:06;;;;;;;6.05;4.20;;;9.00;99.90;;;;;;5033806;28;20408;-73
2023/03/15 00:36:32;;;;;;;6.78;4.30;;;8.90;99.90;;;;;;5062475;28;20408;-73
2023/03/15 00:38:58;;;;;;;5.40;3.67;;;8.90;99.90;;;;;;5051510;28;20418;-73
2023/03/15 00:41:25;;;;;;;5.25;3.97;;;8.80;99.90;;;;;;5047888;28;20457;-73
2023/03/15 00:43:51;;;;;;;6.73;4.30;;;8.80;99.90;;;;;;5052104;28;20467;-73
2023/03/15 00:46:19;;;;;;;5.80;4.00;;;8.80;99.90;;;;;;5065190;28;20420;-72
2023/03/15 00:48:50;;;;;;;7.00;4.22;;;8.80;99.90;;;;;;5050298;28;21135;-72
2023/03/15 00:51:21;;;;;;;7.00;3.90;;;8.90;99.90;;;;;;5037931;28;20506;-73
2023/03/15 00:53:49;;;;;;;7.10;4.20;;;8.90;99.90;;;;;;5049573;28;20423;-72
2023/03/15 00:56:23;;;;;;;6.78;4.05;;;8.80;99.90;;;;;;5021575;28;20395;-73
2023/03/15 00:58:51;;;;;;;7.43;4.30;;;8.80;99.90;;;;;;5049502;28;20504;-73
2023/03/15 01:01:25;;;;;;;4.93;3.80;;;8.80;99.90;;;;;;5034783;28;20450;-73
2023/03/15 01:03:53;;;;;;;5.55;3.83;;;8.80;99.90;;;;;;5048540;28;21253;-73
2023/03/15 01:06:26;;;;;;;6.72;3.88;;;8.80;99.90;;;;;;5037433;28;20459;-73
2023/03/15 01:08:54;;;;;;;6.93;3.75;;;8.80;99.90;;;;;;5030206;28;20439;-73
2023/03/15 01:11:25;;;;;;;6.70;4.00;;;8.80;99.90;;;;;;5029629;28;20404;-73
2023/03/15 01:13:54;;;;;;;5.47;3.50;;;8.80;99.90;;;;;;5023169;28;20591;-73
2023/03/15 01:16:21;;;;;;;5.18;3.67;;;8.70;99.90;;;;;;5051298;28;20439;-73
2023/03/15 01:18:50;;;;;;;5.25;3.65;;;8.70;99.90;;;;;;5049144;28;20417;-73
2023/03/15 01:21:17;;;;;;;5.27;3.30;;;8.70;99.90;;;;;;5049884;28;21022;-72
2023/03/15 01:23:44;;;;;;;6.30;3.72;;;8.70;99.90;;;;;;5050456;28;20418;-73
2023/03/15 01:26:14;;;;;;;4.72;3.72;;;8.60;99.90;;;;;;5020714;28;20802;-73
2023/03/15 01:28:40;;;;;;;6.57;3.60;;;8.60;99.90;;;;;;5062911;28;21081;-73
2023/03/15 01:31:15;;;;;;;4.00;3.45;;;8.70;99.90;;;;;;5063452;28;20482;-73
2023/03/15 01:33:41;;;;;;;5.85;3.63;;;8.70;99.90;;;;;;5048624;28;22450;-73
2023/03/15 01:36:09;;;;;;;4.78;3.70;;;8.80;99.90;;;;;;5046370;28;20494;-73
2023/03/15 01:38:35;;;;;;;5.95;3.75;;;8.90;99.90;;;;;;5038138;28;20898;-73
2023/03/15 01:41:02;;;;;;;6.90;3.65;;;9.00;99.90;;;;;;5067758;28;20508;-73
2023/03/15 01:43:31;;;;;;;6.20;3.70;;;9.10;99.90;;;;;;5049320;28;20843;-73
2023/03/15 01:46:04;;;;;;;5.70;3.75;;;9.20;99.90;;;;;;5034078;28;20449;-73
2023/03/15 01:49:06;;;;;;;7.07;3.78;;;9.30;99.90;;;;;;5054195;28;20823;-73
2023/03/15 01:51:44;;;;;;;4.35;3.38;;;9.40;99.90;;;;;;5020762;28;20416;-72
2023/03/15 01:54:45;;;;;;;4.78;3.00;;;9.40;99.90;;;;;;5048705;28;20448;-73
2023/03/15 01:57:54;;;;;;;4.65;3.00;;;9.40;99.90;;;;;;5043481;28;20504;-73
2023/03/15 02:00:23;;;;;;;3.70;2.80;;;9.40;99.90;;;;;;5049989;28;20455;-72
2023/03/15 02:03:05;;;;;;;4.18;2.80;;;9.40;99.90;;;;;;5021854;28;21189;-74
2023/03/15 02:05:39;;;;;;;4.72;2.75;;;9.40;99.90;;;;;;5033462;28;20867;-74
2023/03/15 02:08:08;;;;;;;5.15;3.10;;;9.40;99.90;;;;;;5023977;28;20404;-74
2023/03/15 02:10:42;;;;;;;4.15;2.53;;;9.30;99.90;;;;;;5064583;28;20515;-74
2023/03/15 02:13:12;;;;;;;5.63;2.67;;;9.30;99.90;;;;;;5033324;28;20403;-75
2023/03/15 02:15:38;;;;;;;3.63;2.77;;;9.20;99.90;;;;;;5046821;28;20500;-74
2023/03/15 02:18:04;;;;;;;4.13;2.60;;;9.20;99.90;;;;;;5051777;28;20536;-74
2023/03/15 02:20:59;;;;;;;3.70;2.83;;;9.20;99.90;;;;;;5047764;28;20419;-74
2023/03/15 02:23:26;;;;;;;3.03;2.33;;;9.10;99.90;;;;;;5050477;28;20501;-75
2023/03/15 02:26:24;;;;;;;3.80;2.53;;;9.10;99.90;;;;;;5051054;28;20409;-75
2023/03/15 02:28:52;;;;;;;3.30;2.50;;;9.00;99.90;;;;;;5049840;28;20982;-75
2023/03/15 02:31:20;;;;;;;4.85;2.47;;;9.00;99.90;;;;;;5048387;28;20499;-75
2023/03/15 02:33:50;;;;;;;3.78;2.58;;;9.00;99.90;;;;;;5050929;28;20417;-75
2023/03/15 02:36:28;;;;;;;4.97;2.30;;;9.00;99.90;;;;;;5029173;28;20418;-75
2023/03/15 02:38:56;;;;;;;3.67;2.58;;;9.00;99.90;;;;;;5062367;28;20426;-75
2023/03/15 02:41:42;;;;;;;2.30;2.10;;;9.00;99.90;;;;;;5045668;28;20459;-75
2023/03/15 02:44:22;;;;;;;3.90;2.40;;;9.00;99.90;;;;;;5065745;28;20975;-75
2023/03/15 02:46:52;;;;;;;3.95;2.28;;;9.00;99.90;;;;;;5039324;28;20417;-75
2023/03/15 02:49:24;;;;;;;3.73;2.30;;;9.00;99.90;;;;;;5050444;28;20449;-75
2023/03/15 02:51:50;;;;;;;4.07;2.17;;;9.00;99.90;;;;;;5049644;28;22572;-75
2023/03/15 02:54:17;;;;;;;2.80;2.10;;;9.10;99.90;;;;;;5046918;28;21146;-75
2023/03/15 02:56:44;;;;;;;4.80;2.40;;;9.10;99.90;;;;;;5031377;28;20407;-75
2023/03/15 02:59:11;;;;;;;2.67;2.10;;;9.10;99.90;;;;;;5050778;28;20417;-75
2023/03/15 03:01:40;;;;;;;4.20;2.40;;;9.10;99.90;;;;;;5048017;28;20425;-75
2023/03/15 03:04:06;;;;;;;5.57;2.33;;;9.10;99.90;;;;;;5049703;28;20409;-75
2023/03/15 03:06:32;;;;;;;2.97;2.20;;;9.10;99.90;;;;;;5048855;28;21200;-75
2023/03/15 03:08:59;;;;;;;4.55;2.38;;;9.10;99.90;;;;;;5041239;28;20425;-75
2023/03/15 03:11:25;;;;;;;5.95;2.40;;;9.10;99.90;;;;;;5038224;28;20416;-75
2023/03/15 03:13:51;;;;;;;4.10;2.30;;;9.10;99.90;;;;;;5035324;28;20405;-75
2023/03/15 03:16:17;;;;;;;3.60;2.58;;;9.10;99.90;;;;;;5033727;28;20415;-75
2023/03/15 03:18:43;;;;;;;5.05;2.55;;;9.20;99.90;;;;;;5042315;28;20451;-75
2023/03/15 03:21:09;;;;;;;3.70;2.33;;;9.20;99.90;;;;;;5039599;28;20414;-75
2023/03/15 03:23:36;;;;;;;3.45;2.30;;;9.20;99.90;;;;;;5041530;28;20514;-75
2023/03/15 03:26:10;;;;;;;4.32;2.53;;;9.20;99.90;;;;;;5043076;28;20755;-75
2023/03/15 03:28:36;;;;;;;2.97;2.13;;;9.20;99.90;;;;;;5053356;28;20427;-75
2023/03/15 03:31:03;;;;;;;2.85;2.30;;;9.20;99.90;;;;;;5035589;28;20956;-75
2023/03/15 03:33:29;;;;;;;4.03;2.55;;;9.10;99.90;;;;;;5053184;28;20417;-75
2023/03/15 03:36:03;;;;;;;5.27;2.60;;;9.10;99.90;;;;;;5061669;28;20426;-75
2023/03/15 03:38:29;;;;;;;3.83;2.40;;;9.00;99.90;;;;;;5034021;28;20417;-75
2023/03/15 03:40:55;;;;;;;4.63;2.38;;;9.00;99.90;;;;;;5049484;28;20452;-75
2023/03/15 03:43:21;;;;;;;4.32;2.40;;;8.90;99.90;;;;;;5056285;28;20808;-75
2023/03/15 03:45:47;;;;;;;3.17;2.58;;;8.80;99.90;;;;;;5055768;28;20531;-75
2023/03/15 03:48:14;;;;;;;2.88;2.47;;;8.80;99.90;;;;;;5037247;28;20412;-75
2023/03/15 03:50:40;;;;;;;3.65;2.70;;;8.80;99.90;;;;;;5031219;28;20415;-75
2023/03/15 03:53:06;;;;;;;3.25;2.60;;;8.80;99.90;;;;;;5034063;28;20825;-75
2023/03/15 03:55:32;;;;;;;4.83;2.63;;;8.90;99.90;;;;;;5047099;28;20612;-75
2023/03/15 03:57:59;;;;;;;4.18;2.70;;;8.80;99.90;;;;;;5036754;28;20461;-75
2023/03/15 04:00:26;;;;;;;4.57;2.60;;;8.80;99.90;;;;;;5052708;28;20474;-75
2023/03/15 04:02:52;;;;;;;3.93;2.60;;;8.80;99.90;;;;;;5059664;28;20595;-74
2023/03/15 04:05:20;;;;;;;3.88;2.70;;;8.80;99.90;;;;;;5048507;28;20474;-75
2023/03/15 04:07:46;;;;;;;3.38;2.60;;;8.80;99.90;;;;;;5051887;28;20411;-75
2023/03/15 04:10:13;;;;;;;3.67;2.80;;;8.90;99.90;;;;;;5067112;28;20407;-75
2023/03/15 04:12:44;;;;;;;4.05;2.80;;;9.00;99.90;;;;;;5021878;28;20495;-75
2023/03/15 04:15:11;;;;;;;4.07;2.65;;;8.90;99.90;;;;;;5028246;28;20419;-75
2023/03/15 04:17:38;;;;;;;3.15;2.70;;;8.80;99.90;;;;;;5038693;28;20421;-75
2023/03/15 04:20:07;;;;;;;3.28;2.70;;;8.80;99.90;;;;;;5054497;28;20738;-75
2023/03/15 04:22:34;;;;;;;3.70;2.40;;;8.80;99.90;;;;;;5065049;28;20409;-75
2023/03/15 04:25:00;;;;;;;5.57;2.43;;;8.80;99.90;;;;;;5019552;28;21036;-75
2023/03/15 04:27:28;;;;;;;3.93;2.57;;;8.70;99.90;;;;;;5050836;28;20424;-75
2023/03/15 04:29:55;;;;;;;4.07;2.73;;;8.80;99.90;;;;;;5033620;28;20418;-75
2023/03/15 04:32:21;;;;;;;4.03;3.17;;;8.90;99.90;;;;;;5054401;28;20407;-75
2023/03/15 04:34:50;;;;;;;3.55;3.00;;;8.90;99.90;;;;;;5038849;28;20924;-75
2023/03/15 04:37:19;;;;;;;3.97;2.83;;;8.90;99.90;;;;;;5048936;28;20455;-74
2023/03/15 04:39:45;;;;;;;5.37;3.23;;;8.90;99.90;;;;;;5019755;28;20413;-75
2023/03/15 04:42:11;;;;;;;5.25;2.97;;;9.00;99.90;;;;;;5039017;28;21273;-75
2023/03/15 04:44:37;;;;;;;4.25;2.90;;;9.00;99.90;;;;;;5036073;28;22292;-75
2023/03/15 04:47:04;;;;;;;5.20;3.10;;;9.00;99.90;;;;;;5048689;28;20807;-75
2023/03/15 04:49:30;;;;;;;4.57;2.88;;;9.00;99.90;;;;;;5050835;28;20444;-75
2023/03/15 04:51:56;;;;;;;6.17;2.90;;;9.00;99.90;;;;;;5039493;28;20437;-75
2023/03/15 04:54:23;;;;;;;3.92;2.80;;;9.00;99.90;;;;;;5053637;28;20468;-75
2023/03/15 04:56:50;;;;;;;3.72;2.78;;;9.10;99.90;;;;;;5032505;28;20402;-75
2023/03/15 04:59:16;;;;;;;4.47;3.10;;;9.10;99.90;;;;;;5064541;28;20411;-75
2023/03/15 05:01:42;;;;;;;4.05;2.80;;;9.20;99.90;;;;;;5051960;28;20423;-75
2023/03/15 05:04:08;;;;;;;4.03;2.80;;;9.20;99.90;;;;;;5052238;28;20508;-75
2023/03/15 05:06:35;;;;;;;4.00;2.88;;;9.30;99.90;;;;;;5051426;28;20932;-75
2023/03/15 05:09:02;;;;;;;3.75;2.80;;;9.30;99.90;;;;;;5038879;28;20504;-75
2023/03/15 05:11:29;;;;;;;5.05;2.97;;;9.30;99.90;;;;;;5064143;28;20452;-75
2023/03/15 05:13:55;;;;;;;4.18;2.90;;;9.30;99.90;;;;;;5065634;28;20411;-75
2023/03/15 05:16:21;;;;;;;4.43;2.97;;;9.30;99.90;;;;;;5048358;28;20408;-75
2023/03/15 05:18:47;;;;;;;4.03;2.97;;;9.40;99.90;;;;;;5051647;28;20426;-75
2023/03/15 05:21:13;;;;;;;4.05;3.10;;;9.40;99.90;;;;;;5052062;28;20469;-75
2023/03/15 05:23:40;;;;;;;4.70;3.00;;;9.60;99.90;;;;;;5043228;28;20434;-74
2023/03/15 05:26:07;;;;;;;3.47;2.90;;;9.60;99.90;;;;;;5046700;28;20409;-75
2023/03/15 05:28:33;;;;;;;4.68;2.92;;;9.70;99.90;;;;;;5035532;28;20420;-75
2023/03/15 05:31:01;;;;;;;4.45;3.00;;;9.80;99.90;;;;;;5033258;28;20403;-75
2023/03/15 05:33:27;;;;;;;4.13;2.90;;;9.90;99.90;;;;;;5032043;28;20524;-75
2023/03/15 05:35:55;;;;;;;4.10;2.80;;;10.00;99.90;;;;;;5066963;28;20756;-75
2023/03/15 05:38:25;;;;;;;3.25;2.40;;;10.00;99.90;;;;;;5029577;28;21391;-75
2023/03/15 05:40:53;;;;;;;3.83;2.70;;;10.10;99.90;;;;;;5033233;28;20417;-75
2023/03/15 05:43:24;;;;;;;3.40;2.60;;;10.20;99.90;;;;;;5045537;28;20800;-75
2023/03/15 05:45:51;;;;;;;2.97;2.50;;;10.30;99.90;;;;;;5048098;28;21095;-75
2023/03/15 05:48:17;;;;;;;3.45;2.45;;;10.30;99.90;;;;;;5045281;28;20444;-75
2023/03/15 05:50:43;;;;;;;5.68;2.95;;;10.50;99.90;;;;;;5029419;28;20446;-75
2023/03/15 05:53:09;;;;;;;4.97;2.92;;;10.50;99.90;;;;;;5047488;28;20434;-75
2023/03/15 05:55:36;;;;;;;4.40;2.70;;;10.60;99.90;;;;;;5014473;28;20411;-75
2023/03/15 05:58:03;;;;;;;3.35;2.90;;;10.60;99.90;;;;;;5047004;28;20782;-75
2023/03/15 06:00:30;;;;;;;4.13;3.05;;;10.60;99.90;;;;;;5045007;28;20979;-75
2023/03/15 06:02:56;;;;;;;4.40;2.80;;;10.60;99.90;;;;;;5052051;28;20489;-75
2023/03/15 06:05:22;;;;;;;5.03;2.95;;;10.70;99.90;;;;;;5050672;28;20427;-75
2023/03/15 06:07:48;;;;;;;4.63;3.10;;;10.70;99.90;;;;;;5035705;28;20423;-75
2023/03/15 06:10:14;;;;;;;3.15;2.85;;;10.80;99.90;;;;;;5047335;28;20407;-75
2023/03/15 06:12:41;;;;;;;5.03;2.80;;;10.90;99.90;;;;;;5051060;28;20789;-75
2023/03/15 06:15:08;;;;;;;4.88;3.08;;;10.90;99.90;;;;;;5051636;28;20915;-76
2023/03/15 06:17:34;;;;;;;4.00;3.05;;;10.90;99.90;;;;;;5049591;28;20533;-75
2023/03/15 06:20:01;;;;;;;4.15;2.80;;;11.00;99.90;;;;;;5031824;28;20456;-75
2023/03/15 06:22:27;;;;;;;4.55;3.00;;;11.00;99.90;;;;;;5030818;28;20417;-76
2023/03/15 06:24:53;;;;;;;4.38;3.00;;;11.00;99.90;;;;;;5060540;28;20787;-76
2023/03/15 06:27:20;;;;;;;4.47;3.00;;;11.10;99.90;;;;;;5031335;28;20425;-76
2023/03/15 06:29:49;;;;;;;3.28;2.97;;;11.10;99.90;;;;;;5064508;28;20423;-76
2023/03/15 06:32:15;;;;;;;4.45;3.15;;;11.20;99.90;;;;;;5047078;28;20442;-76
2023/03/15 06:34:42;;;;;;;4.53;2.97;;;11.20;99.90;;;;;;5046951;28;20501;-77
2023/03/15 06:37:08;;;;;;;5.40;2.92;;;11.30;99.90;;;;;;5030729;28;20467;-76
2023/03/15 06:39:34;;;;;;;6.87;2.73;;;11.50;99.90;;;;;;5031488;28;20411;-76
2023/03/15 06:42:02;;;;;;;4.97;2.67;;;11.50;99.90;;;;;;5038495;28;20428;-76
2023/03/15 06:44:28;;;;;;;5.95;2.85;;;11.50;99.90;;;;;;5037827;28;20412;-76
2023/03/15 06:46:55;;;;;;;6.07;2.90;;;11.50;99.90;;;;;;5017689;28;20438;-76
2023/03/15 06:49:22;;;;;;;5.85;2.72;;;11.60;99.90;;;;;;5058431;28;20413;-76
2023/03/15 06:51:48;;;;;;;5.07;2.70;;;11.70;99.90;;;;;;5036163;28;20573;-76
2023/03/15 06:54:15;;;;;;;5.00;2.55;;;11.70;99.90;;;;;;5053679;28;20411;-76
2023/03/15 06:56:41;;;;;;;4.47;2.42;;;11.80;99.90;;;;;;5062699;28;20506;-76
2023/03/15 06:59:08;;;;;;;4.38;2.40;;;11.80;99.90;;;;;;5033622;28;20440;-76
2023/03/15 07:01:34;;;;;;;3.50;2.10;;;11.90;99.90;;;;;;5054790;28;20471;-76
2023/03/15 07:04:00;;;;;;;4.05;2.15;;;11.90;99.90;;;;;;5014036;28;20453;-75
2023/03/15 07:06:28;;;;;;;3.70;2.30;;;12.00;99.90;;;;;;5036635;28;20427;-76
2023/03/15 07:08:54;;;;;;;5.07;2.08;;;12.00;99.90;;;;;;5051716;28;20544;-76
2023/03/15 07:11:20;;;;;;;4.40;1.95;;;12.00;99.90;;;;;;5031246;28;20480;-76
2023/03/15 07:13:46;;;;;;;3.42;1.90;;;12.20;99.90;;;;;;5049595;28;20805;-75
2023/03/15 07:16:13;;;;;;;3.80;2.00;;;12.30;99.90;;;;;;5034922;28;20422;-76
2023/03/15 07:18:39;;;;;;;3.25;2.13;;;12.40;99.90;;;;;;5064773;28;20411;-76
2023/03/15 07:21:07;;;;;;;5.47;2.30;;;12.40;99.90;;;;;;5050534;28;20500;-76
2023/03/15 07:23:33;;;;;;;3.47;2.13;;;12.50;99.90;;;;;;5050724;28;20417;-76
2023/03/15 07:25:59;;;;;;;5.28;2.20;;;12.50;99.90;;;;;;5039404;28;20961;-76
2023/03/15 07:28:26;;;;;;;3.95;2.20;;;12.50;99.90;;;;;;5053432;28;20942;-76
2023/03/15 07:31:04;;;;;;;4.60;2.10;;;12.70;99.90;;;;;;5067886;28;21469;-76
2023/03/15 07:33:32;;;;;;;2.92;1.83;;;12.70;99.90;;;;;;5032215;28;20483;-76
2023/03/15 07:36:00;;;;;;;2.45;1.73;;;12.80;99.90;;;;;;5036036;28;20430;-76
2023/03/15 07:38:30;;;;;;;2.72;1.60;;;12.90;99.90;;;;;;5030156;28;22162;-76
2023/03/15 07:41:00;;;;;;;2.10;1.50;;;12.90;99.90;;;;;;5052891;28;20409;-76
2023/03/15 07:43:26;;;;;;;2.70;1.52;;;12.90;99.90;;;;;;5058339;28;20985;-76
2023/03/15 07:45:52;;;;;;;2.55;1.33;;;12.90;99.90;;;;;;5045109;28;20783;-76
2023/03/15 07:48:19;;;;;;;3.13;1.30;;;12.90;99.90;;;;;;5054088;28;20420;-76
2023/03/15 07:50:46;;;;;;;1.73;1.10;;;12.90;99.90;;;;;;5054900;28;20405;-76
2023/03/15 07:53:12;;;;;;;2.55;1.17;;;12.90;99.90;;;;;;5030348;28;20533;-75
2023/03/15 07:55:39;;;;;;;2.80;1.42;;;13.00;99.90;;;;;;5065036;28;20418;-75
2023/03/15 07:58:05;;;;;;;2.75;1.50;;;13.10;99.90;;;;;;5070703;28;20427;-76
2023/03/15 08:00:32;;;;;;;2.90;1.40;;;13.10;99.90;;;;;;5052846;28;20413;-75
2023/03/15 08:02:59;;;;;;;2.33;1.40;;;13.10;99.90;;;;;;5046029;28;20463;-75
2023/03/15 08:05:25;;;;;;;2.25;1.40;;;13.20;99.90;;;;;;5060435;28;20432;-76
2023/03/15 08:07:51;;;;;;;2.47;1.50;;;13.00;99.90;;;;;;5051667;28;20412;-75
2023/03/15 08:10:18;;;;;;;2.78;1.50;;;12.70;99.90;;;;;;5029542;28;21149;-76
2023/03/15 08:12:44;;;;;;;3.33;1.30;;;12.70;99.90;;;;;;5075227;28;20507;-76
2023/03/15 08:15:15;;;;;;;2.45;1.45;;;12.50;99.90;;;;;;5057541;28;20405;-76
2023/03/15 08:17:42;;;;;;;2.30;1.40;;;12.20;99.90;;;;;;5060272;28;20426;-76
2023/03/15 08:20:10;;;;;;;3.05;1.60;;;12.50;99.90;;;;;;5041548;28;20414;-76
2023/03/15 08:22:38;;;;;;;2.85;1.48;;;12.20;99.90;;;;;;5021470;28;20515;-76
2023/03/15 08:25:05;;;;;;;4.07;1.90;;;12.50;99.90;;;;;;5050662;28;20797;-75
2023/03/15 08:27:31;;;;;;;3.05;1.50;;;12.90;99.90;;;;;;5055855;28;20417;-75
2023/03/15 08:29:57;;;;;;;3.67;1.70;;;12.70;99.90;;;;;;5058406;28;20444;-75
2023/03/15 08:32:23;;;;;;;5.28;1.55;;;12.90;99.90;;;;;;5020798;28;20823;-75
2023/03/15 08:34:52;;;;;;;3.13;1.58;;;13.00;99.90;;;;;;5047811;28;20456;-75
2023/03/15 08:37:19;;;;;;;5.22;1.73;;;13.10;99.90;;;;;;5053143;28;20421;-74
2023/03/15 08:39:45;;;;;;;4.27;1.70;;;13.20;99.90;;;;;;5066411;28;20435;-75
2023/03/15 08:42:11;;;;;;;2.10;1.30;;;13.30;99.90;;;;;;5052949;28;20763;-75
2023/03/15 08:44:37;;;;;;;2.47;1.33;;;12.90;99.90;;;;;;5062622;28;20922;-74
2023/03/15 08:47:04;;;;;;;2.80;1.60;;;12.80;99.90;;;;;;5047591;28;20507;-74
2023/03/15 08:49:32;;;;;;;2.90;1.50;;;13.00;99.90;;;;;;5043388;28;20471;-75
2023/03/15 08:51:58;;;;;;;2.10;1.40;;;12.90;99.90;;;;;;5052831;28;20416;-75
2023/03/15 08:54:26;;;;;;;2.70;1.45;;;12.80;99.90;;;;;;5021396;28;20803;-74
2023/03/15 08:56:52;;;;;;;3.78;1.50;;;12.90;99.90;;;;;;5054836;28;20925;-75
2023/03/15 08:59:18;;;;;;;4.03;1.70;;;12.60;99.90;;;;;;5064969;28;20411;-75
2023/03/15 09:01:45;;;;;;;4.57;1.50;;;12.30;99.90;;;;;;5025658;28;20421;-74
2023/03/15 09:04:11;;;;;;;3.10;1.48;;;12.70;99.90;;;;;;5036554;28;20942;-75
2023/03/15 09:06:37;;;;;;;3.10;1.48;;;12.80;99.90;;;;;;5042170;28;20773;-75
2023/03/15 09:09:03;;;;;;;1.57;1.30;;;12.50;99.90;;;;;;5050193;28;20933;-75
2023/03/15 09:11:30;;;;;;;3.85;1.70;;;12.20;99.90;;;;;;5051110;28;20538;-75
2023/03/15 09:13:56;;;;;;;3.63;1.70;;;12.30;99.90;;;;;;5038318;28;20527;-75
2023/03/15 09:16:22;;;;;;;3.73;1.60;;;12.70;99.90;;;;;;5043397;28;20415;-75
2023/03/15 09:18:48;;;;;;;4.40;1.70;;;12.60;99.90;;;;;;5030990;28;20419;-75
2023/03/15 09:21:15;;;;;;;4.00;1.70;;;12.70;99.90;;;;;;5033323;28;20473;-75
2023/03/15 09:23:41;;;;;;;3.47;1.50;;;12.90;99.90;;;;;;5054450;28;20429;-75
2023/03/15 09:26:07;;;;;;;4.03;1.50;;;13.00;99.90;;;;;;5048674;28;20420;-75
2023/03/15 09:28:34;;;;;;;2.78;1.50;;;13.00;99.90;;;;;;5035145;28;20415;-75
2023/03/15 09:31:05;;;;;;;3.53;1.55;;;13.00;99.90;;;;;;5035881;28;20823;-75
2023/03/15 09:33:32;;;;;;;3.42;1.35;;;13.00;99.90;;;;;;5020458;28;20473;-75
2023/03/15 09:35:58;;;;;;;3.83;1.47;;;13.00;99.90;;;;;;5053200;28;21126;-75
2023/03/15 09:38:25;;;;;;;2.08;1.30;;;12.90;99.90;;;;;;5061313;28;20423;-75
2023/03/15 09:40:58;;;;;;;3.10;1.40;;;12.90;99.90;;;;;;5043834;28;20430;-75
2023/03/15 09:44:01;;;;;;;3.70;1.50;;;12.90;99.90;;;;;;5022248;28;20732;-75
2023/03/15 09:46:39;;;;;;;1.73;1.17;;;12.90;99.90;;;;;;5040415;28;20488;-75
2023/03/15 09:49:56;;;;;;;2.38;1.33;;;12.60;99.90;;;;;;5041214;28;20411;-75
2023/03/15 09:53:05;;;;;;;2.42;1.30;;;12.90;99.90;;;;;;5048284;28;20799;-75
2023/03/15 09:55:32;;;;;;;4.63;1.50;;;12.90;99.90;;;;;;5050938;28;20430;-74
2023/03/15 09:58:35;;;;;;;2.50;1.20;;;13.10;99.90;;;;;;5035539;28;20921;-74
2023/03/15 10:01:13;;;;;;;3.63;1.30;;;13.10;99.90;;;;;;5025697;28;20790;-75
2023/03/15 10:03:49;;;;;;;3.15;1.50;;;13.10;99.90;;;;;;5051854;28;20844;-74
2023/03/15 10:06:27;;;;;;;2.28;1.35;;;12.90;99.90;;;;;;5021904;28;20427;-75
2023/03/15 10:09:00;;;;;;;2.45;1.20;;;12.70;99.90;;;;;;5050111;28;20412;-75
2023/03/15 10:11:39;;;;;;;2.70;1.27;;;12.70;99.90;;;;;;5049390;28;20807;-74
2023/03/15 10:14:27;;;;;;;3.28;1.13;;;13.10;99.90;;;;;;5035062;28;20402;-75
2023/03/15 10:16:53;;;;;;;2.33;1.27;;;12.90;99.90;;;;;;5018779;28;20509;-74
2023/03/15 10:19:57;;;;;;;2.47;1.30;;;12.80;99.90;;;;;;5037669;28;20415;-74
2023/03/15 10:22:32;;;;;;;5.13;1.30;;;13.10;99.90;;;;;;5044129;28;20421;-75
2023/03/15 10:25:13;;;;;;;1.80;1.05;;;13.20;99.90;;;;;;5053500;28;20588;-74
2023/03/15 10:28:08;;;;;;;2.22;1.02;;;13.40;99.90;;;;;;5052040;28;21136;-75
2023/03/15 10:30:44;;;;;;;1.70;1.00;;;13.50;99.90;;;;;;5050200;28;20405;-75
2023/03/15 10:33:31;;;;;;;2.60;1.00;;;13.60;99.90;;;;;;5034641;28;20899;-75
2023/03/15 10:35:58;;;;;;;1.45;0.90;;;13.90;99.90;;;;;;5031984;28;20741;-74
2023/03/15 10:38:26;;;;;;;2.03;0.90;;;14.30;99.90;;;;;;5042301;28;20409;-75
2023/03/15 10:40:58;;;;;;;7.32;1.30;;;14.60;99.90;;;;;;5050259;28;20457;-74
2023/03/15 10:43:36;;;;;;;2.67;1.10;;;14.90;99.90;;;;;;5043637;28;20463;-75
2023/03/15 10:46:11;;;;;;;2.50;0.85;;;14.90;99.90;;;;;;5062861;28;20424;-75
2023/03/15 10:48:59;;;;;;;3.83;1.30;;;14.80;99.90;;;;;;5052254;28;20792;-75
2023/03/15 10:51:32;;;;;;;4.57;1.40;;;14.70;99.90;;;;;;5053775;28;20528;-75
2023/03/15 10:54:10;;;;;;;2.38;1.35;;;14.50;99.90;;;;;;5047529;28;20420;-75
2023/03/15 10:57:13;;;;;;;2.10;1.20;;;14.30;99.90;;;;;;5025849;28;20406;-75
2023/03/15 10:59:58;;;;;;;4.57;1.30;;;14.10;99.90;;;;;;5035936;28;20415;-75
2023/03/15 11:02:28;;;;;;;6.53;1.30;;;14.10;99.90;;;;;;5036894;28;20414;-75
2023/03/15 11:05:16;;;;;;;2.63;1.27;;;14.00;99.90;;;;;;5051893;28;20415;-75
2023/03/15 11:07:58;;;;;;;2.33;1.30;;;14.10;99.90;;;;;;5032113;28;20797;-75
2023/03/15 11:10:32;;;;;;;2.83;1.30;;;14.10;99.90;;;;;;5051347;28;20960;-74
2023/03/15 11:13:21;;;;;;;2.87;1.50;;;14.10;99.90;;;;;;5056955;28;20415;-74
2023/03/15 11:16:13;;;;;;;3.40;1.58;;;14.00;99.90;;;;;;5055714;28;20488;-74
2023/03/15 11:18:53;;;;;;;3.22;1.50;;;13.80;99.90;;;;;;5051100;28;21195;-74
2023/03/15 11:21:32;;;;;;;2.10;1.50;;;13.80;99.90;;;;;;5029570;28;20417;-75
2023/03/15 11:24:02;;;;;;;4.63;1.80;;;13.80;99.90;;;;;;5048118;28;21082;-75
2023/03/15 11:26:38;;;;;;;4.50;1.60;;;13.90;99.90;;;;;;5037856;28;21175;-75
2023/03/15 11:29:33;;;;;;;3.20;1.60;;;13.80;99.90;;;;;;5060033;28;20442;-74
2023/03/15 11:32:15;;;;;;;3.70;1.90;;;13.50;99.90;;;;;;5036141;28;20868;-75
2023/03/15 11:35:08;;;;;;;5.43;1.93;;;13.40;99.90;;;;;;5047056;28;20500;-75
2023/03/15 11:38:27;;;;;;;4.67;2.03;;;13.50;99.90;;;;;;5053287;28;20436;-74
2023/03/15 11:40:58;;;;;;;5.47;2.30;;;13.50;99.90;;;;;;5048383;28;20501;-75
2023/03/15 11:43:41;;;;;;;2.67;1.70;;;13.40;99.90;;;;;;5033398;28;20399;-75
2023/03/15 11:46:44;;;;;;;5.97;2.20;;;13.20;99.90;;;;;;5058253;28;20798;-75
2023/03/15 11:49:35;;;;;;;6.32;2.80;;;13.20;99.90;;;;;;5026263;28;20414;-75
2023/03/15 11:52:03;;;;;;;6.43;2.60;;;13.20;99.90;;;;;;5043228;28;20419;-74
2023/03/15 11:54:31;;;;;;;6.78;2.90;;;13.20;99.90;;;;;;5035192;28;21013;-75
2023/03/15 11:57:06;;;;;;;3.72;2.72;;;13.20;99.90;;;;;;5035569;28;20425;-74
2023/03/15 11:59:45;;;;;;;6.65;3.10;;;13.30;99.90;;;;;;5052717;28;20476;-75
2023/03/15 12:02:14;;;;;;;6.15;3.10;;;13.40;99.90;;;;;;5060245;28;20439;-75
2023/03/15 12:04:54;;;;;;;5.85;3.10;;;13.30;99.90;;;;;;5047571;28;20886;-74
2023/03/15 12:07:28;;;;;;;5.68;3.10;;;13.30;99.90;;;;;;5061826;28;20416;-75
2023/03/15 12:10:33;;;;;;;5.55;2.80;;;13.40;99.90;;;;;;5059621;28;20512;-75
2023/03/15 12:13:17;;;;;;;5.80;2.78;;;13.50;99.90;;;;;;5030064;28;20408;-74
2023/03/15 12:15:46;;;;;;;4.22;2.65;;;13.60;99.90;;;;;;5054294;28;20432;-74
2023/03/15 12:18:41;;;;;;;7.00;2.78;;;13.60;99.90;;;;;;5051208;28;20427;-74
2023/03/15 12:21:32;;;;;;;3.75;2.20;;;13.70;99.90;;;;;;5034498;28;20419;-75
2023/03/15 12:24:25;;;;;;;4.88;4.00;;;13.70;99.90;;;;;;5047628;28;20486;-75
2023/03/15 12:27:13;;;;;;;5.55;4.20;;;13.60;99.90;;;;;;5040084;28;20416;-74
2023/03/15 12:29:43;;;;;;;5.95;3.83;;;13.70;99.90;;;;;;5059049;28;20423;-74
2023/03/15 12:32:18;;;;;;;3.88;3.03;;;13.80;99.90;;;;;;5031287;28;20502;-74
2023/03/15 12:34:53;;;;;;;2.87;2.07;;;14.10;99.90;;;;;;5061514;28;20457;-75
2023/03/15 12:37:42;;;;;;;4.60;2.50;;;14.20;99.90;;;;;;5052913;28;20479;-75
2023/03/15 12:40:14;;;;;;;4.78;2.22;;;14.10;99.90;;;;;;5068118;28;20406;-75
2023/03/15 12:42:41;;;;;;;4.07;1.93;;;14.00;99.90;;;;;;5048927;28;20872;-75
2023/03/15 12:45:16;;;;;;;3.17;2.40;;;14.00;99.90;;;;;;5034482;28;20417;-75
2023/03/15 12:47:52;;;;;;;3.78;2.42;;;14.10;99.90;;;;;;5034208;28;20408;-75
2023/03/15 12:50:44;;;;;;;4.10;2.50;;;14.40;99.90;;;;;;5033407;28;20428;-74
2023/03/15 12:53:38;;;;;;;3.55;2.10;;;14.70;99.90;;;;;;5053571;28;20423;-75
2023/03/15 12:56:50;;;;;;;5.13;2.72;;;14.70;99.90;;;;;;5049133;28;21208;-74
2023/03/15 12:59:49;;;;;;;5.15;3.00;;;14.40;99.90;;;;;;5065884;28;20523;-75
2023/03/15 13:03:03;;;;;;;6.13;3.35;;;14.20;99.90;;;;;;5038846;28;20419;-75
2023/03/15 13:06:03;;;;;;;5.88;3.40;;;14.00;99.90;;;;;;5049368;28;20946;-75
2023/03/15 13:08:38;;;;;;;6.15;3.75;;;13.90;99.90;;;;;;5057285;28;20432;-75
2023/03/15 13:11:26;;;;;;;6.95;3.40;;;13.80;99.90;;;;;;5057891;28;20950;-75
2023/03/15 13:14:42;;;;;;;7.47;3.90;;;13.70;99.90;;;;;;5033992;28;20495;-75
2023/03/15 13:17:44;;;;;;;6.05;3.92;;;13.70;99.90;;;;;;5032212;28;20797;-75